Time;durP1;ratioP1;P1;durP2;ratioP2;P2;SDS_P1;SDS_P2;PMS_P1;PMS_P2;Temp;Humidity;BMP_temperature;BMP_pressure;BME280_temperature;BME280_humidity;BME280_pressure;Samples;Min_cycle;Max_cycle;Signal;HPM_P1;HPM_P2
2022/08/30 00:02:49;;;;;;;5.20;3.80;;;20.30;83.10;;;;;;7387379;19;20371;-46
2022/08/30 00:05:19;;;;;;;12.77;4.10;;;20.40;83.10;;;;;;7387214;19;20933;-47
2022/08/30 00:07:49;;;;;;;5.23;4.03;;;20.40;82.70;;;;;;7382898;19;20380;-47
2022/08/30 00:10:18;;;;;;;4.90;4.10;;;20.40;82.30;;;;;;7386493;19;20376;-47
2022/08/30 00:12:51;;;;;;;7.97;4.70;;;20.30;84.10;;;;;;7384906;19;20368;-46
2022/08/30 00:15:21;;;;;;;5.80;3.97;;;20.30;83.90;;;;;;7384745;19;20904;-46
2022/08/30 00:17:50;;;;;;;8.43;3.70;;;20.20;84.00;;;;;;7384517;19;20381;-46
2022/08/30 00:20:22;;;;;;;5.10;3.97;;;20.30;83.30;;;;;;7387504;19;20410;-46
2022/08/30 00:22:52;;;;;;;5.03;4.17;;;20.30;82.50;;;;;;7385049;19;20383;-47
2022/08/30 00:25:25;;;;;;;6.67;3.90;;;20.40;82.80;;;;;;7382331;19;21057;-47
2022/08/30 00:27:57;;;;;;;4.90;3.40;;;20.30;83.10;;;;;;7384975;19;20392;-46
2022/08/30 00:30:27;;;;;;;5.50;3.63;;;20.10;84.30;;;;;;7385006;19;20383;-46
2022/08/30 00:32:57;;;;;;;4.93;3.80;;;20.10;83.80;;;;;;7385111;19;20380;-46
2022/08/30 00:35:27;;;;;;;9.60;4.30;;;20.10;85.10;;;;;;7388011;19;20392;-46
2022/08/30 00:37:59;;;;;;;5.67;4.63;;;19.70;87.00;;;;;;7387154;19;20769;-46
2022/08/30 00:40:29;;;;;;;5.80;4.20;;;19.70;89.10;;;;;;7383648;19;20451;-46
2022/08/30 00:43:03;;;;;;;5.00;3.73;;;19.80;87.70;;;;;;7385566;19;20373;-47
2022/08/30 00:45:35;;;;;;;5.40;4.17;;;19.90;87.10;;;;;;7383541;19;20488;-46
2022/08/30 00:48:05;;;;;;;4.77;4.10;;;19.80;86.90;;;;;;7383959;19;20424;-46
2022/08/30 00:50:39;;;;;;;5.20;4.50;;;19.90;87.90;;;;;;7384702;19;20376;-46
2022/08/30 00:53:12;;;;;;;5.70;4.50;;;19.90;87.70;;;;;;7384974;19;20372;-47
2022/08/30 00:55:42;;;;;;;5.00;4.50;;;20.00;87.80;;;;;;7386390;19;20372;-46
2022/08/30 00:58:20;;;;;;;8.57;4.77;;;20.00;88.00;;;;;;7386441;19;20376;-46
2022/08/30 01:00:53;;;;;;;6.67;4.80;;;19.90;89.90;;;;;;7382746;19;20874;-46
2022/08/30 01:03:23;;;;;;;6.40;5.13;;;19.80;90.60;;;;;;7383092;19;20949;-47
2022/08/30 01:05:53;;;;;;;7.80;5.30;;;19.70;91.70;;;;;;7384023;19;20392;-47
2022/08/30 01:08:23;;;;;;;6.47;5.80;;;19.70;91.80;;;;;;7382733;19;20376;-46
2022/08/30 01:10:54;;;;;;;10.93;5.30;;;19.50;93.00;;;;;;7385658;19;20372;-47
2022/08/30 01:13:29;;;;;;;6.60;5.23;;;19.30;94.50;;;;;;7382172;19;20380;-48
2022/08/30 01:15:59;;;;;;;6.77;5.60;;;19.40;95.20;;;;;;7382690;19;20793;-46
2022/08/30 01:18:30;;;;;;;8.43;4.90;;;19.60;94.70;;;;;;7382628;19;20388;-46
2022/08/30 01:21:07;;;;;;;6.67;5.30;;;19.50;95.00;;;;;;7384582;19;20383;-46
2022/08/30 01:23:43;;;;;;;8.30;5.40;;;19.60;94.90;;;;;;7383052;19;20375;-46
2022/08/30 01:26:16;;;;;;;7.40;5.73;;;19.60;95.40;;;;;;7379848;19;20383;-47
2022/08/30 01:28:48;;;;;;;6.70;5.30;;;19.50;96.30;;;;;;7382056;19;21046;-47
2022/08/30 01:31:19;;;;;;;8.53;5.90;;;19.20;97.70;;;;;;7378202;19;20387;-46
2022/08/30 01:33:48;;;;;;;6.90;5.70;;;19.20;98.60;;;;;;7384242;19;21028;-46
2022/08/30 01:36:20;;;;;;;6.93;5.43;;;19.20;99.10;;;;;;7383224;19;20755;-46
2022/08/30 01:38:55;;;;;;;6.40;5.20;;;19.30;98.90;;;;;;7383240;19;20380;-46
2022/08/30 01:41:28;;;;;;;6.93;5.70;;;19.10;99.90;;;;;;7381200;19;20391;-46
2022/08/30 01:43:59;;;;;;;6.50;5.80;;;18.90;99.90;;;;;;7380225;19;20391;-46
2022/08/30 01:46:34;;;;;;;9.30;5.60;;;19.30;99.90;;;;;;7380973;19;20911;-47
2022/08/30 01:49:05;;;;;;;8.10;4.63;;;19.50;98.00;;;;;;7383846;19;20379;-47
2022/08/30 01:51:35;;;;;;;6.40;4.57;;;19.60;96.80;;;;;;7381775;19;20376;-46
2022/08/30 01:54:08;;;;;;;6.90;5.90;;;19.40;96.60;;;;;;7382417;19;20376;-47
2022/08/30 01:56:38;;;;;;;10.40;5.63;;;19.30;97.80;;;;;;7382111;19;20422;-46
2022/08/30 01:59:08;;;;;;;9.53;5.43;;;19.40;97.80;;;;;;7383564;19;20379;-46
2022/08/30 02:01:38;;;;;;;7.70;5.70;;;19.40;97.40;;;;;;7379921;19;21014;-46
2022/08/30 02:04:10;;;;;;;5.33;4.83;;;19.30;97.50;;;;;;7383745;19;20391;-46
2022/08/30 02:06:40;;;;;;;7.10;5.00;;;19.40;97.00;;;;;;7380248;19;20792;-46
2022/08/30 02:09:13;;;;;;;6.50;5.40;;;19.50;96.60;;;;;;7384306;19;20368;-46
2022/08/30 02:11:43;;;;;;;6.80;4.97;;;19.30;97.40;;;;;;7379642;19;20784;-46
2022/08/30 02:14:13;;;;;;;7.70;5.40;;;19.20;98.10;;;;;;7383546;19;20806;-46
2022/08/30 02:16:43;;;;;;;6.77;5.37;;;19.20;98.70;;;;;;7380785;19;20380;-48
2022/08/30 02:19:12;;;;;;;7.67;5.57;;;19.20;98.90;;;;;;7382807;19;20893;-47
2022/08/30 02:21:42;;;;;;;6.73;5.00;;;19.00;99.90;;;;;;7382337;19;20901;-46
2022/08/30 02:24:14;;;;;;;7.27;6.00;;;18.90;99.90;;;;;;7383061;19;20376;-46
2022/08/30 02:26:44;;;;;;;7.40;5.53;;;18.80;99.90;;;;;;7378100;19;20925;-46
2022/08/30 02:29:13;;;;;;;6.63;5.00;;;18.90;99.90;;;;;;7382931;19;20376;-46
2022/08/30 02:31:43;;;;;;;8.13;5.40;;;18.90;99.90;;;;;;7371158;19;20402;-46
2022/08/30 02:34:13;;;;;;;7.50;5.10;;;19.10;99.90;;;;;;7387444;19;20384;-47
2022/08/30 02:36:42;;;;;;;7.97;6.10;;;19.10;99.90;;;;;;7386972;19;20378;-47
2022/08/30 02:39:15;;;;;;;8.20;6.00;;;19.10;99.90;;;;;;7389426;19;20811;-47
2022/08/30 02:41:45;;;;;;;8.50;6.00;;;19.20;99.90;;;;;;7386310;19;20383;-46
2022/08/30 02:44:14;;;;;;;9.77;6.07;;;19.30;99.90;;;;;;7387058;19;20364;-46
2022/08/30 02:46:44;;;;;;;8.20;5.17;;;19.30;99.90;;;;;;7384143;19;20925;-47
2022/08/30 02:49:14;;;;;;;9.30;6.07;;;19.10;99.90;;;;;;7388656;19;20368;-46
2022/08/30 02:51:43;;;;;;;6.70;5.27;;;19.10;99.90;;;;;;7385251;19;20376;-47
2022/08/30 02:54:18;;;;;;;6.10;5.40;;;18.80;99.90;;;;;;7389605;19;21238;-46
2022/08/30 02:56:48;;;;;;;10.23;6.40;;;18.80;99.90;;;;;;7387515;19;20372;-46
2022/08/30 02:59:19;;;;;;;7.53;5.40;;;18.80;99.90;;;;;;7385594;19;20384;-47
2022/08/30 03:01:49;;;;;;;6.20;5.20;;;19.00;99.90;;;;;;7384672;19;20461;-47
2022/08/30 03:04:18;;;;;;;10.10;5.27;;;19.10;99.90;;;;;;7388903;19;20721;-46
2022/08/30 03:06:48;;;;;;;8.53;5.77;;;19.30;99.90;;;;;;7382765;19;20403;-47
2022/08/30 03:09:21;;;;;;;7.80;5.10;;;19.30;99.90;;;;;;7389603;19;20368;-47
2022/08/30 03:11:50;;;;;;;6.97;6.13;;;19.10;99.90;;;;;;7385962;19;20376;-47
2022/08/30 03:14:20;;;;;;;9.33;6.40;;;18.90;99.90;;;;;;7387269;19;20380;-47
2022/08/30 03:16:49;;;;;;;8.57;5.50;;;18.80;99.90;;;;;;7383988;19;20388;-47
2022/08/30 03:19:19;;;;;;;9.73;6.27;;;18.90;99.90;;;;;;7388716;19;20386;-46
2022/08/30 03:21:49;;;;;;;10.20;6.53;;;19.00;99.90;;;;;;7388062;19;20364;-46
2022/08/30 03:24:21;;;;;;;7.10;5.10;;;19.00;99.90;;;;;;7389921;19;20423;-47
2022/08/30 03:26:51;;;;;;;7.97;5.43;;;19.20;99.90;;;;;;7387255;19;20770;-47
2022/08/30 03:29:21;;;;;;;8.17;6.20;;;18.90;99.90;;;;;;7387808;19;20364;-46
2022/08/30 03:31:51;;;;;;;5.50;4.80;;;18.70;99.90;;;;;;7386742;19;20367;-46
2022/08/30 03:34:21;;;;;;;6.50;5.20;;;18.70;99.90;;;;;;7389531;19;20718;-46
2022/08/30 03:36:51;;;;;;;7.80;5.40;;;18.70;99.90;;;;;;7387428;19;20364;-46
2022/08/30 03:39:25;;;;;;;7.17;5.97;;;18.60;99.90;;;;;;7390201;19;21148;-46
2022/08/30 03:41:54;;;;;;;7.90;5.37;;;18.60;99.90;;;;;;7390021;19;20732;-47
2022/08/30 03:44:24;;;;;;;7.73;5.73;;;18.70;99.90;;;;;;7384932;19;20400;-46
2022/08/30 03:46:54;;;;;;;7.13;5.63;;;18.70;99.90;;;;;;7382917;19;20383;-47
2022/08/30 03:49:24;;;;;;;10.40;6.20;;;18.80;99.90;;;;;;7386872;19;20431;-46
2022/08/30 03:51:53;;;;;;;6.17;5.07;;;18.90;99.90;;;;;;7387624;19;20715;-47
2022/08/30 03:54:26;;;;;;;7.80;5.33;;;18.70;99.90;;;;;;7388070;19;20383;-46
2022/08/30 03:56:56;;;;;;;6.80;5.60;;;18.60;99.90;;;;;;7388702;19;21036;-46
2022/08/30 03:59:25;;;;;;;7.63;6.40;;;18.50;99.90;;;;;;7384490;19;20376;-46
2022/08/30 04:01:55;;;;;;;6.47;5.80;;;18.60;99.90;;;;;;7377813;19;20459;-46
2022/08/30 04:04:24;;;;;;;6.57;5.27;;;18.70;99.90;;;;;;7381880;19;20780;-46
2022/08/30 04:06:54;;;;;;;10.13;5.53;;;18.70;99.90;;;;;;7385006;19;20391;-47
2022/08/30 04:09:26;;;;;;;7.67;5.90;;;18.70;99.90;;;;;;7385827;19;20726;-46
2022/08/30 04:11:56;;;;;;;6.97;5.50;;;18.40;99.90;;;;;;7386649;19;20921;-46
2022/08/30 04:14:25;;;;;;;6.77;6.07;;;18.50;99.90;;;;;;7382549;19;20376;-47
2022/08/30 04:16:55;;;;;;;6.63;5.33;;;18.30;99.90;;;;;;7383983;19;20372;-46
2022/08/30 04:19:24;;;;;;;7.47;5.90;;;18.00;99.90;;;;;;7378676;19;20414;-46
2022/08/30 04:21:54;;;;;;;8.87;6.80;;;18.00;99.90;;;;;;7382233;19;20739;-46
2022/08/30 04:24:26;;;;;;;11.00;5.67;;;18.20;99.90;;;;;;7385726;19;20737;-47
2022/08/30 04:26:55;;;;;;;7.10;5.63;;;18.40;99.90;;;;;;7384505;19;20440;-46
2022/08/30 04:29:27;;;;;;;8.33;6.27;;;18.40;99.90;;;;;;7383385;19;20368;-46
2022/08/30 04:31:57;;;;;;;8.47;5.73;;;18.20;99.90;;;;;;7377880;19;20383;-46
2022/08/30 04:34:27;;;;;;;6.80;4.83;;;18.10;99.90;;;;;;7380149;19;20391;-46
2022/08/30 04:36:59;;;;;;;9.37;6.60;;;18.20;99.90;;;;;;7383623;19;20414;-46
2022/08/30 04:39:31;;;;;;;12.03;6.80;;;18.20;99.90;;;;;;7388250;19;20458;-47
2022/08/30 04:42:02;;;;;;;11.40;5.97;;;18.20;99.90;;;;;;7387451;19;20372;-47
2022/08/30 04:44:32;;;;;;;9.53;6.30;;;18.00;99.90;;;;;;7385649;19;20375;-46
2022/08/30 04:47:02;;;;;;;8.13;6.53;;;18.00;99.90;;;;;;7383133;19;20384;-46
2022/08/30 04:49:32;;;;;;;9.07;6.30;;;18.00;99.90;;;;;;7387178;19;20918;-46
2022/08/30 04:52:02;;;;;;;7.63;6.17;;;18.10;99.90;;;;;;7386948;19;20410;-46
2022/08/30 04:54:34;;;;;;;6.90;6.00;;;18.20;99.90;;;;;;7384882;19;20381;-47
2022/08/30 04:57:03;;;;;;;6.30;5.13;;;18.20;99.90;;;;;;7385687;19;20479;-47
2022/08/30 04:59:33;;;;;;;7.40;5.90;;;18.20;99.90;;;;;;7387032;19;20939;-46
2022/08/30 05:02:03;;;;;;;8.70;6.10;;;18.20;99.90;;;;;;7385046;19;20974;-46
2022/08/30 05:04:32;;;;;;;10.70;6.33;;;18.00;99.90;;;;;;7385038;19;20735;-47
2022/08/30 05:07:02;;;;;;;11.70;7.00;;;18.00;99.90;;;;;;7385866;19;20382;-46
2022/08/30 05:09:36;;;;;;;9.60;6.60;;;18.10;99.90;;;;;;7386769;19;20850;-47
2022/08/30 05:12:06;;;;;;;8.93;6.70;;;18.10;99.90;;;;;;7386058;19;20827;-46
2022/08/30 05:14:38;;;;;;;8.37;5.90;;;18.20;99.90;;;;;;7385465;19;20819;-46
2022/08/30 05:17:07;;;;;;;9.23;6.43;;;18.30;99.90;;;;;;7385093;19;20447;-46
2022/08/30 05:19:39;;;;;;;7.30;5.93;;;18.40;99.90;;;;;;7386500;19;20375;-46
2022/08/30 05:22:09;;;;;;;9.40;5.97;;;18.40;99.90;;;;;;7383783;19;20776;-46
2022/08/30 05:24:41;;;;;;;10.40;6.17;;;18.50;99.90;;;;;;7384796;19;20375;-47
2022/08/30 05:27:10;;;;;;;8.27;5.70;;;18.40;99.90;;;;;;7381800;19;20375;-46
2022/08/30 05:29:40;;;;;;;8.83;6.03;;;18.50;99.90;;;;;;7386889;19;20375;-46
2022/08/30 05:32:10;;;;;;;8.97;6.67;;;18.70;99.90;;;;;;7387181;19;20378;-46
2022/08/30 05:34:40;;;;;;;8.33;5.60;;;18.90;99.90;;;;;;7383911;19;20411;-46
2022/08/30 05:37:12;;;;;;;8.60;6.30;;;19.10;99.90;;;;;;7384582;19;20459;-47
2022/08/30 05:39:44;;;;;;;9.10;5.97;;;19.20;99.90;;;;;;7381649;19;20750;-47
2022/08/30 05:42:14;;;;;;;7.13;5.97;;;19.50;99.90;;;;;;7383878;19;21018;-46
2022/08/30 05:44:46;;;;;;;7.80;6.00;;;19.60;99.90;;;;;;7383870;19;20372;-46
2022/08/30 05:47:16;;;;;;;8.43;6.20;;;19.70;99.90;;;;;;7384502;19;20380;-46
2022/08/30 05:49:45;;;;;;;7.27;6.00;;;19.70;99.90;;;;;;7385703;19;20372;-47
2022/08/30 05:52:17;;;;;;;10.00;6.70;;;19.80;99.90;;;;;;7385190;19;20376;-46
2022/08/30 05:54:54;;;;;;;8.13;6.07;;;19.90;99.90;;;;;;7383879;19;20380;-47
2022/08/30 05:57:24;;;;;;;7.60;5.80;;;20.10;99.20;;;;;;7385516;19;20451;-47
2022/08/30 05:59:53;;;;;;;12.13;6.10;;;20.10;99.30;;;;;;7384958;19;20380;-47
2022/08/30 06:02:23;;;;;;;8.23;7.40;;;20.10;99.50;;;;;;7385174;19;20899;-47
2022/08/30 06:04:52;;;;;;;6.70;5.90;;;20.10;99.10;;;;;;7383335;19;20388;-47
2022/08/30 06:07:22;;;;;;;7.57;6.37;;;20.20;98.80;;;;;;7383060;19;20388;-47
2022/08/30 06:09:54;;;;;;;7.97;6.23;;;20.20;98.50;;;;;;7385025;19;20753;-47
2022/08/30 06:12:24;;;;;;;11.00;7.13;;;20.40;97.80;;;;;;7381922;19;20891;-47
2022/08/30 06:14:54;;;;;;;6.43;5.30;;;20.30;96.90;;;;;;7383003;19;20387;-47
2022/08/30 06:17:23;;;;;;;12.67;6.83;;;20.50;96.60;;;;;;7384622;19;20381;-47
2022/08/30 06:19:53;;;;;;;8.10;5.80;;;20.60;95.50;;;;;;7383314;19;20382;-47
2022/08/30 06:22:22;;;;;;;10.63;7.60;;;20.70;94.00;;;;;;7382980;19;20406;-47
2022/08/30 06:24:55;;;;;;;10.30;7.53;;;20.70;93.10;;;;;;7377036;19;20368;-47
2022/08/30 06:27:24;;;;;;;10.63;7.17;;;20.80;93.10;;;;;;7381449;19;20377;-47
2022/08/30 06:29:54;;;;;;;9.03;6.97;;;21.00;92.10;;;;;;7384001;19;20746;-47
2022/08/30 06:32:24;;;;;;;11.47;7.50;;;21.20;91.60;;;;;;7382952;19;20875;-47
2022/08/30 06:34:54;;;;;;;9.40;7.40;;;21.40;90.30;;;;;;7383087;19;20375;-47
2022/08/30 06:37:26;;;;;;;9.80;7.10;;;21.60;89.20;;;;;;7380259;19;20376;-48
2022/08/30 06:39:59;;;;;;;10.37;7.10;;;21.80;87.90;;;;;;7381343;19;20368;-47
2022/08/30 06:42:32;;;;;;;12.10;7.77;;;22.00;87.30;;;;;;7381406;19;20651;-48
2022/08/30 06:45:05;;;;;;;11.57;7.40;;;22.20;87.70;;;;;;7383554;19;20380;-49
2022/08/30 06:47:37;;;;;;;8.40;6.47;;;22.30;85.00;;;;;;7380476;19;20741;-48
2022/08/30 06:50:08;;;;;;;10.07;6.80;;;22.50;83.10;;;;;;7375041;19;20902;-47
2022/08/30 06:52:38;;;;;;;9.27;6.87;;;22.70;82.90;;;;;;7378289;19;20383;-47
2022/08/30 06:55:11;;;;;;;12.17;7.77;;;22.90;82.00;;;;;;7381432;19;20375;-48
2022/08/30 06:57:41;;;;;;;10.20;7.70;;;23.00;80.80;;;;;;7371659;19;21410;-47
2022/08/30 07:00:15;;;;;;;10.33;8.63;;;23.10;78.00;;;;;;7374881;19;20386;-48
2022/08/30 07:02:46;;;;;;;16.00;9.23;;;23.10;78.30;;;;;;7364950;19;21026;-47
2022/08/30 07:05:16;;;;;;;9.40;7.53;;;23.00;79.20;;;;;;7374311;19;20384;-47
2022/08/30 07:07:46;;;;;;;13.20;9.10;;;23.20;79.90;;;;;;7376109;19;20941;-48
2022/08/30 07:10:18;;;;;;;12.57;8.07;;;23.40;78.40;;;;;;7383214;19;20411;-47
2022/08/30 07:12:48;;;;;;;9.80;7.10;;;23.60;77.20;;;;;;7379091;19;20394;-47
2022/08/30 07:15:21;;;;;;;10.73;9.20;;;23.70;75.80;;;;;;7379765;19;20372;-47
2022/08/30 07:20:33;;;;;;;10.73;8.93;;;24.10;74.60;;;;;;7390680;19;20380;-48
2022/08/30 07:23:03;;;;;;;11.23;7.90;;;24.20;72.70;;;;;;7385873;19;20414;-48
2022/08/30 07:25:35;;;;;;;10.13;7.00;;;24.50;70.80;;;;;;7383912;19;20368;-48
2022/08/30 07:28:05;;;;;;;12.60;7.73;;;24.60;70.10;;;;;;7383740;19;20384;-47
2022/08/30 07:30:35;;;;;;;8.10;6.93;;;24.70;68.60;;;;;;7384259;19;20961;-48
2022/08/30 07:33:05;;;;;;;11.53;7.30;;;24.90;68.40;;;;;;7384606;19;20381;-48
2022/08/30 07:35:36;;;;;;;11.27;7.73;;;25.10;67.40;;;;;;7378187;19;20965;-48
2022/08/30 07:38:05;;;;;;;14.63;7.43;;;25.30;65.50;;;;;;7380559;19;20944;-48
2022/08/30 07:40:40;;;;;;;11.63;7.40;;;25.50;65.40;;;;;;7378239;19;20379;-48
2022/08/30 07:43:12;;;;;;;8.87;7.37;;;25.70;63.60;;;;;;7385406;19;20414;-48
2022/08/30 07:45:42;;;;;;;13.23;6.60;;;25.90;63.20;;;;;;7380278;19;20444;-48
2022/08/30 07:48:12;;;;;;;13.80;7.20;;;26.10;61.90;;;;;;7379288;19;20383;-48
2022/08/30 07:50:47;;;;;;;23.83;7.80;;;26.40;60.70;;;;;;7387036;19;20376;-48
2022/08/30 07:53:16;;;;;;;8.53;6.50;;;26.60;59.40;;;;;;7378614;19;20375;-48
2022/08/30 07:55:49;;;;;;;10.07;6.97;;;26.70;59.20;;;;;;7384426;19;20730;-49
2022/08/30 07:58:18;;;;;;;9.30;7.93;;;26.80;58.90;;;;;;7387382;19;20372;-49
2022/08/30 08:00:48;;;;;;;7.23;6.50;;;26.70;59.00;;;;;;7385802;19;20540;-49
2022/08/30 08:03:18;;;;;;;10.87;6.83;;;26.90;58.60;;;;;;7386563;19;20372;-48
2022/08/30 08:05:48;;;;;;;6.40;5.80;;;26.90;58.00;;;;;;7374746;19;20427;-48
2022/08/30 08:08:17;;;;;;;10.83;6.93;;;26.90;58.00;;;;;;7384746;19;20384;-48
2022/08/30 08:10:49;;;;;;;10.30;7.60;;;26.90;57.90;;;;;;7387675;19;20754;-49
2022/08/30 08:13:22;;;;;;;9.10;6.03;;;26.80;58.10;;;;;;7383045;19;20364;-49
2022/08/30 08:15:52;;;;;;;16.00;7.00;;;27.00;58.40;;;;;;7369042;19;20372;-48
2022/08/30 08:18:21;;;;;;;9.27;6.17;;;27.10;57.60;;;;;;7379739;19;20783;-49
2022/08/30 08:20:51;;;;;;;8.00;6.17;;;27.30;57.00;;;;;;7385782;19;20928;-48
2022/08/30 08:23:20;;;;;;;7.83;6.77;;;27.30;56.50;;;;;;7381887;19;20745;-48
2022/08/30 08:25:53;;;;;;;10.00;6.80;;;27.10;56.60;;;;;;7384962;19;20705;-47
2022/08/30 08:28:26;;;;;;;7.87;6.20;;;27.20;57.00;;;;;;7381987;19;20383;-48
2022/08/30 08:30:55;;;;;;;11.00;6.13;;;27.40;57.10;;;;;;7379770;19;20380;-48
2022/08/30 08:33:25;;;;;;;11.40;5.80;;;27.60;56.40;;;;;;7376865;19;20455;-48
2022/08/30 08:35:55;;;;;;;6.67;5.53;;;27.80;55.90;;;;;;7383353;19;20910;-47
2022/08/30 08:38:24;;;;;;;8.40;6.20;;;28.10;55.80;;;;;;7381695;19;20381;-47
2022/08/30 08:41:05;;;;;;;8.43;6.17;;;28.50;54.30;;;;;;7377871;19;20368;-47
2022/08/30 08:43:37;;;;;;;9.20;5.30;;;28.60;54.10;;;;;;7374739;19;20368;-47
2022/08/30 08:46:14;;;;;;;8.17;6.30;;;28.90;53.20;;;;;;7379493;19;20380;-48
2022/08/30 08:48:48;;;;;;;7.80;5.70;;;29.10;53.30;;;;;;7381728;19;20751;-48
2022/08/30 08:54:13;;;;;;;7.83;5.80;;;29.70;52.10;;;;;;7385158;19;20424;-48
2022/08/30 08:56:45;;;;;;;8.73;6.30;;;30.10;51.20;;;;;;7384656;19;20805;-48
2022/08/30 08:59:17;;;;;;;9.53;6.67;;;30.40;50.70;;;;;;7379456;19;20950;-48
2022/08/30 09:01:49;;;;;;;7.77;5.77;;;30.70;49.80;;;;;;7378856;19;20428;-48
2022/08/30 09:04:23;;;;;;;7.17;5.50;;;31.00;49.30;;;;;;7383761;19;20372;-48
2022/08/30 09:07:02;;;;;;;7.93;5.10;;;31.20;49.00;;;;;;7384085;19;20400;-48
2022/08/30 09:09:35;;;;;;;6.20;5.50;;;31.50;48.70;;;;;;7374861;19;20745;-48
2022/08/30 09:12:10;;;;;;;5.83;5.10;;;31.60;47.50;;;;;;7367894;19;20387;-48
2022/08/30 09:14:44;;;;;;;9.33;5.13;;;32.00;47.20;;;;;;7377953;19;20751;-48
2022/08/30 09:17:18;;;;;;;5.40;4.90;;;32.30;46.30;;;;;;7379898;19;20384;-48
2022/08/30 09:20:01;;;;;;;5.70;5.07;;;32.50;46.10;;;;;;7381300;19;20965;-49
2022/08/30 09:22:36;;;;;;;7.30;5.70;;;32.90;45.30;;;;;;7381836;19;20405;-49
2022/08/30 09:25:09;;;;;;;8.60;4.80;;;33.00;45.10;;;;;;7380496;19;20383;-49
2022/08/30 09:27:47;;;;;;;6.57;4.90;;;33.30;44.50;;;;;;7378161;19;20368;-49
2022/08/30 09:30:21;;;;;;;5.93;5.33;;;33.80;43.50;;;;;;7380242;19;20926;-49
2022/08/30 09:32:56;;;;;;;5.03;4.53;;;34.00;42.20;;;;;;7381489;19;20412;-49
2022/08/30 09:35:37;;;;;;;6.87;4.90;;;34.20;42.40;;;;;;7380697;19;20372;-49
2022/08/30 09:38:09;;;;;;;4.70;4.20;;;34.50;41.70;;;;;;7380232;19;20367;-49
2022/08/30 09:40:44;;;;;;;5.97;5.33;;;35.00;41.10;;;;;;7374333;19;21175;-50
2022/08/30 09:43:26;;;;;;;5.30;4.80;;;35.20;40.80;;;;;;7375428;19;20399;-49
2022/08/30 09:46:12;;;;;;;4.70;4.30;;;35.60;39.40;;;;;;7378258;19;20364;-49
2022/08/30 09:48:43;;;;;;;5.30;4.73;;;36.10;39.10;;;;;;7381419;19;21351;-49
2022/08/30 09:51:38;;;;;;;4.97;3.80;;;36.20;37.80;;;;;;7380845;19;20749;-48
2022/08/30 09:54:20;;;;;;;5.07;4.57;;;36.60;37.90;;;;;;7379805;19;20743;-49
2022/08/30 09:57:02;;;;;;;6.10;5.10;;;36.60;37.20;;;;;;7381018;19;20392;-48
2022/08/30 09:59:45;;;;;;;4.83;4.33;;;36.50;37.40;;;;;;7382047;19;20413;-50
2022/08/30 10:02:42;;;;;;;5.50;5.00;;;36.40;38.00;;;;;;7380956;19;20440;-50
2022/08/30 10:05:18;;;;;;;5.60;4.67;;;36.60;38.00;;;;;;7382963;19;20388;-48
2022/08/30 10:07:54;;;;;;;5.23;4.73;;;36.80;37.00;;;;;;7381679;19;20360;-49
2022/08/30 10:10:32;;;;;;;7.37;4.80;;;36.80;37.40;;;;;;7380650;19;20774;-49
2022/08/30 10:13:14;;;;;;;6.13;5.10;;;36.60;37.00;;;;;;7381418;19;20395;-48
2022/08/30 10:15:52;;;;;;;4.90;4.40;;;37.10;35.90;;;;;;7381810;19;20380;-48
2022/08/30 10:18:32;;;;;;;4.57;4.17;;;37.50;34.40;;;;;;7382473;19;20376;-48
2022/08/30 10:21:12;;;;;;;4.30;4.00;;;37.80;34.20;;;;;;7379759;19;20841;-48
2022/08/30 10:23:47;;;;;;;5.03;4.63;;;37.50;34.50;;;;;;7377818;19;20946;-49
2022/08/30 10:26:28;;;;;;;4.40;4.00;;;37.00;35.10;;;;;;7382524;19;20382;-48
2022/08/30 10:29:05;;;;;;;5.50;4.40;;;36.90;35.00;;;;;;7382583;19;20384;-48
2022/08/30 10:31:45;;;;;;;6.50;4.23;;;37.30;34.60;;;;;;7382904;19;20472;-47
2022/08/30 10:34:26;;;;;;;6.53;3.80;;;38.30;32.10;;;;;;7380003;19;20372;-47
2022/08/30 10:37:02;;;;;;;4.77;4.27;;;38.70;32.70;;;;;;7380641;19;20384;-47
2022/08/30 10:39:40;;;;;;;5.23;4.10;;;38.80;30.90;;;;;;7382063;19;20714;-47
2022/08/30 10:42:17;;;;;;;3.23;2.97;;;39.40;31.10;;;;;;7383857;19;20370;-47
2022/08/30 10:44:51;;;;;;;4.20;3.90;;;39.70;29.30;;;;;;7382159;19;20420;-47
2022/08/30 10:47:33;;;;;;;4.87;4.37;;;39.30;29.40;;;;;;7380510;19;20731;-47
2022/08/30 10:50:08;;;;;;;4.23;3.83;;;39.00;30.50;;;;;;7381444;19;20409;-49
2022/08/30 10:52:46;;;;;;;4.13;3.80;;;38.60;30.50;;;;;;7381112;19;20379;-49
2022/08/30 10:55:20;;;;;;;4.63;4.23;;;39.10;29.30;;;;;;7389555;19;20378;-49
2022/08/30 10:57:50;;;;;;;5.23;3.87;;;39.10;29.90;;;;;;7389341;19;20908;-49
2022/08/30 11:00:29;;;;;;;3.80;3.50;;;39.10;29.10;;;;;;7387925;19;20439;-47
2022/08/30 11:03:38;;;;;;;5.87;3.60;;;39.10;28.00;;;;;;7387635;19;20372;-49
2022/08/30 11:06:15;;;;;;;3.70;3.40;;;38.40;28.60;;;;;;7384593;19;20411;-49
2022/08/30 11:09:23;;;;;;;4.03;3.73;;;38.10;28.50;;;;;;7388022;19;20732;-49
2022/08/30 11:12:27;;;;;;;3.93;3.27;;;39.20;28.70;;;;;;7384671;19;20841;-49
2022/08/30 11:14:57;;;;;;;3.73;3.40;;;40.60;27.70;;;;;;7386236;19;20435;-49
2022/08/30 11:17:33;;;;;;;4.90;4.50;;;41.50;27.30;;;;;;7389004;19;20380;-49
2022/08/30 11:20:22;;;;;;;4.77;3.93;;;41.50;28.00;;;;;;7388370;19;20380;-47
2022/08/30 11:23:21;;;;;;;4.93;4.53;;;40.90;29.00;;;;;;7380998;19;20372;-47
2022/08/30 11:25:53;;;;;;;4.57;4.17;;;40.60;28.70;;;;;;7381556;19;20407;-47
2022/08/30 11:29:04;;;;;;;4.30;4.00;;;40.80;28.80;;;;;;7384616;19;20385;-49
2022/08/30 11:31:39;;;;;;;4.50;4.20;;;41.50;28.30;;;;;;7379135;19;20408;-50
2022/08/30 11:34:10;;;;;;;3.77;3.47;;;41.80;27.90;;;;;;7387000;19;20400;-50
2022/08/30 11:37:10;;;;;;;4.67;4.27;;;41.80;28.00;;;;;;7387422;19;20377;-50
2022/08/30 11:40:08;;;;;;;4.30;3.90;;;41.80;27.60;;;;;;7384227;19;20368;-48
2022/08/30 11:42:44;;;;;;;3.90;3.57;;;41.40;28.20;;;;;;7377030;19;20412;-50
2022/08/30 11:45:44;;;;;;;4.53;4.13;;;40.50;29.10;;;;;;7379985;19;20364;-50
2022/08/30 11:48:46;;;;;;;4.83;3.90;;;40.10;29.00;;;;;;7385664;19;20384;-51
2022/08/30 11:51:52;;;;;;;4.57;4.17;;;39.40;29.60;;;;;;7381648;19;20423;-50
2022/08/30 11:54:39;;;;;;;4.40;4.00;;;38.50;30.80;;;;;;7375504;19;20798;-50
2022/08/30 11:57:19;;;;;;;4.40;4.00;;;37.50;31.50;;;;;;7384430;19;20372;-50
2022/08/30 12:00:01;;;;;;;3.90;3.60;;;36.80;32.70;;;;;;7385459;19;20368;-50
2022/08/30 12:02:57;;;;;;;6.50;6.00;;;36.30;33.80;;;;;;7382687;19;20715;-50
2022/08/30 12:05:50;;;;;;;4.70;4.10;;;35.80;33.90;;;;;;7382634;19;20471;-50
2022/08/30 12:08:47;;;;;;;4.60;4.20;;;35.60;34.60;;;;;;7377586;19;20376;-50
2022/08/30 12:11:46;;;;;;;4.93;4.43;;;35.70;34.70;;;;;;7382866;19;20714;-50
2022/08/30 12:14:40;;;;;;;5.23;4.30;;;35.30;34.60;;;;;;7382320;19;20371;-49
2022/08/30 12:20:05;;;;;;;5.00;4.37;;;33.40;36.70;;;;;;7383936;19;20365;-49
2022/08/30 12:22:36;;;;;;;5.43;4.90;;;33.50;36.70;;;;;;7381985;19;20415;-50
2022/08/30 12:25:21;;;;;;;5.53;4.37;;;33.30;37.10;;;;;;7385893;19;20391;-49
2022/08/30 12:27:51;;;;;;;5.50;4.20;;;32.90;37.20;;;;;;7376361;19;20372;-49
2022/08/30 12:30:29;;;;;;;4.50;4.10;;;33.40;37.00;;;;;;7379624;19;20416;-49
2022/08/30 12:32:59;;;;;;;5.20;4.70;;;33.80;36.70;;;;;;7381232;19;20364;-49
2022/08/30 12:35:29;;;;;;;4.10;3.80;;;33.90;36.30;;;;;;7381425;19;20380;-49
2022/08/30 12:38:02;;;;;;;4.57;4.10;;;34.30;36.40;;;;;;7385088;19;20384;-49
2022/08/30 12:40:33;;;;;;;5.60;5.10;;;34.90;36.00;;;;;;7384426;19;20908;-48
2022/08/30 12:43:06;;;;;;;4.07;3.67;;;35.50;34.50;;;;;;7383691;19;20375;-48
2022/08/30 12:45:43;;;;;;;5.60;4.20;;;36.30;34.20;;;;;;7384391;19;20914;-48
2022/08/30 12:48:16;;;;;;;4.07;3.77;;;37.20;32.70;;;;;;7382708;19;20788;-49
2022/08/30 12:50:52;;;;;;;4.27;3.87;;;38.10;31.60;;;;;;7380470;19;20768;-49
2022/08/30 12:53:29;;;;;;;6.00;5.40;;;38.80;30.00;;;;;;7374368;19;20380;-49
2022/08/30 12:56:03;;;;;;;4.10;3.80;;;39.40;29.70;;;;;;7384564;19;20378;-49
2022/08/30 12:58:38;;;;;;;3.80;3.50;;;39.50;29.90;;;;;;7380804;19;20723;-49
2022/08/30 13:01:33;;;;;;;4.63;4.20;;;38.80;29.40;;;;;;7383323;19;20430;-49
2022/08/30 13:04:12;;;;;;;5.10;3.60;;;37.90;30.90;;;;;;7384727;19;20993;-48
2022/08/30 13:06:51;;;;;;;4.90;4.20;;;37.60;32.00;;;;;;7380361;19;21062;-49
2022/08/30 13:09:28;;;;;;;4.70;4.30;;;37.80;31.30;;;;;;7382627;19;20387;-49
2022/08/30 13:11:58;;;;;;;4.33;3.93;;;38.70;30.00;;;;;;7375718;19;20905;-49
2022/08/30 13:14:39;;;;;;;4.30;3.90;;;39.20;29.80;;;;;;7383830;19;20813;-48
2022/08/30 13:17:24;;;;;;;4.93;3.90;;;39.00;29.40;;;;;;7357492;19;20424;-48
2022/08/30 13:20:03;;;;;;;4.47;4.07;;;39.10;29.40;;;;;;7378563;19;20372;-49
2022/08/30 13:22:35;;;;;;;4.53;4.13;;;39.30;29.80;;;;;;7385425;19;20406;-49
2022/08/30 13:25:07;;;;;;;4.77;4.33;;;40.10;28.80;;;;;;7382708;19;20776;-49
2022/08/30 13:27:38;;;;;;;4.00;3.60;;;40.30;28.80;;;;;;7378361;19;20911;-48
2022/08/30 13:30:14;;;;;;;4.60;4.20;;;39.50;28.90;;;;;;7377265;19;20379;-49